sensor_id;sensor_type;location;lat;lon;timestamp;pressure;altitude;pressure_sealevel;temperature;humidity
64025;BME280;50266;57.446;26.936;2023-12-14T00:00:48;98477.13;;;-1.21;100.0
64025;BME280;50266;57.446;26.936;2023-12-14T00:01:48;98475.44;;;-1.2;100.0
64025;BME280;50266;57.446;26.936;2023-12-14T00:02:48;98479.17;;;-1.22;100.0
64025;BME280;50266;57.446;26.936;2023-12-14T00:03:48;98474.87;;;-1.23;100.0
64025;BME280;50266;57.446;26.936;2023-12-14T00:04:48;98479.58;;;-1.24;100.0
64025;BME280;50266;57.446;26.936;2023-12-14T00:05:48;98478.7;;;-1.24;100.0
64025;BME280;50266;57.446;26.936;2023-12-14T00:06:48;98484.38;;;-1.23;100.0
64025;BME280;50266;57.446;26.936;2023-12-14T00:07:48;98486.58;;;-1.24;100.0
64025;BME280;50266;57.446;26.936;2023-12-14T00:08:48;98486.09;;;-1.24;100.0
64025;BME280;50266;57.446;26.936;2023-12-14T00:09:48;98486.88;;;-1.25;100.0
64025;BME280;50266;57.446;26.936;2023-12-14T00:10:48;98486.74;;;-1.24;100.0
64025;BME280;50266;57.446;26.936;2023-12-14T00:11:48;98489.73;;;-1.25;100.0
64025;BME280;50266;57.446;26.936;2023-12-14T00:12:48;98491.34;;;-1.27;100.0
64025;BME280;50266;57.446;26.936;2023-12-14T00:13:48;98487.23;;;-1.28;100.0
64025;BME280;50266;57.446;26.936;2023-12-14T00:14:48;98486.78;;;-1.27;100.0
64025;BME280;50266;57.446;26.936;2023-12-14T00:15:48;98485.45;;;-1.28;100.0
64025;BME280;50266;57.446;26.936;2023-12-14T00:16:48;98485.95;;;-1.26;100.0
64025;BME280;50266;57.446;26.936;2023-12-14T00:17:48;98491.0;;;-1.26;100.0
64025;BME280;50266;57.446;26.936;2023-12-14T00:18:49;98492.58;;;-1.28;100.0
64025;BME280;50266;57.446;26.936;2023-12-14T00:19:49;98490.3;;;-1.28;100.0
64025;BME280;50266;57.446;26.936;2023-12-14T00:20:49;98489.28;;;-1.29;100.0
64025;BME280;50266;57.446;26.936;2023-12-14T00:21:49;98496.1;;;-1.31;100.0
64025;BME280;50266;57.446;26.936;2023-12-14T00:22:49;98496.89;;;-1.3;100.0
64025;BME280;50266;57.446;26.936;2023-12-14T00:23:49;98496.56;;;-1.3;100.0
64025;BME280;50266;57.446;26.936;2023-12-14T00:24:49;98494.0;;;-1.3;100.0
64025;BME280;50266;57.446;26.936;2023-12-14T00:25:49;98497.64;;;-1.3;100.0
64025;BME280;50266;57.446;26.936;2023-12-14T00:26:49;98502.41;;;-1.28;100.0
64025;BME280;50266;57.446;26.936;2023-12-14T00:27:49;98502.38;;;-1.29;100.0
64025;BME280;50266;57.446;26.936;2023-12-14T00:28:49;98500.07;;;-1.28;100.0
64025;BME280;50266;57.446;26.936;2023-12-14T00:29:49;98498.67;;;-1.27;100.0
64025;BME280;50266;57.446;26.936;2023-12-14T00:30:49;98499.53;;;-1.27;100.0
64025;BME280;50266;57.446;26.936;2023-12-14T00:31:49;98506.57;;;-1.26;100.0
64025;BME280;50266;57.446;26.936;2023-12-14T00:32:49;98504.59;;;-1.25;100.0
64025;BME280;50266;57.446;26.936;2023-12-14T00:33:49;98504.23;;;-1.26;100.0
64025;BME280;50266;57.446;26.936;2023-12-14T00:34:49;98508.23;;;-1.3;100.0
64025;BME280;50266;57.446;26.936;2023-12-14T00:35:49;98504.75;;;-1.29;100.0
64025;BME280;50266;57.446;26.936;2023-12-14T00:36:49;98506.92;;;-1.3;100.0
64025;BME280;50266;57.446;26.936;2023-12-14T00:37:49;98507.88;;;-1.29;100.0
64025;BME280;50266;57.446;26.936;2023-12-14T00:38:49;98509.72;;;-1.28;100.0
64025;BME280;50266;57.446;26.936;2023-12-14T00:39:49;98506.72;;;-1.27;100.0
64025;BME280;50266;57.446;26.936;2023-12-14T00:40:49;98506.95;;;-1.28;100.0
64025;BME280;50266;57.446;26.936;2023-12-14T00:41:49;98502.69;;;-1.27;100.0
64025;BME280;50266;57.446;26.936;2023-12-14T00:42:49;98506.07;;;-1.27;100.0
64025;BME280;50266;57.446;26.936;2023-12-14T00:43:49;98506.61;;;-1.29;100.0
64025;BME280;50266;57.446;26.936;2023-12-14T00:44:49;98509.11;;;-1.27;100.0
64025;BME280;50266;57.446;26.936;2023-12-14T00:45:49;98510.59;;;-1.28;100.0
64025;BME280;50266;57.446;26.936;2023-12-14T00:46:49;98505.48;;;-1.28;100.0
64025;BME280;50266;57.446;26.936;2023-12-14T00:47:49;98512.0;;;-1.28;100.0
64025;BME280;50266;57.446;26.936;2023-12-14T00:48:49;98509.7;;;-1.26;100.0
64025;BME280;50266;57.446;26.936;2023-12-14T00:49:49;98507.89;;;-1.25;100.0
64025;BME280;50266;57.446;26.936;2023-12-14T00:50:49;98512.41;;;-1.25;100.0
64025;BME280;50266;57.446;26.936;2023-12-14T00:51:49;98512.34;;;-1.25;100.0
64025;BME280;50266;57.446;26.936;2023-12-14T00:52:49;98510.14;;;-1.24;100.0
64025;BME280;50266;57.446;26.936;2023-12-14T00:53:49;98513.44;;;-1.23;100.0
64025;BME280;50266;57.446;26.936;2023-12-14T00:54:49;98512.47;;;-1.23;100.0
64025;BME280;50266;57.446;26.936;2023-12-14T00:55:49;98510.06;;;-1.23;100.0
64025;BME280;50266;57.446;26.936;2023-12-14T00:56:49;98517.45;;;-1.23;100.0
64025;BME280;50266;57.446;26.936;2023-12-14T00:57:49;98513.44;;;-1.23;100.0
64025;BME280;50266;57.446;26.936;2023-12-14T00:58:49;98514.52;;;-1.23;100.0
64025;BME280;50266;57.446;26.936;2023-12-14T00:59:49;98514.38;;;-1.24;100.0
64025;BME280;50266;57.446;26.936;2023-12-14T01:00:49;98513.89;;;-1.24;100.0
64025;BME280;50266;57.446;26.936;2023-12-14T01:01:49;98514.38;;;-1.24;100.0
64025;BME280;50266;57.446;26.936;2023-12-14T01:02:49;98515.62;;;-1.23;100.0
64025;BME280;50266;57.446;26.936;2023-12-14T01:03:49;98514.27;;;-1.22;100.0
64025;BME280;50266;57.446;26.936;2023-12-14T01:04:49;98520.95;;;-1.22;100.0
64025;BME280;50266;57.446;26.936;2023-12-14T01:05:49;98521.0;;;-1.24;100.0
64025;BME280;50266;57.446;26.936;2023-12-14T01:06:49;98515.52;;;-1.24;100.0
64025;BME280;50266;57.446;26.936;2023-12-14T01:07:49;98519.57;;;-1.23;100.0
64025;BME280;50266;57.446;26.936;2023-12-14T01:08:49;98520.28;;;-1.23;100.0
64025;BME280;50266;57.446;26.936;2023-12-14T01:09:49;98517.2;;;-1.26;100.0
64025;BME280;50266;57.446;26.936;2023-12-14T01:10:49;98521.55;;;-1.24;100.0
64025;BME280;50266;57.446;26.936;2023-12-14T01:11:49;98520.25;;;-1.24;100.0
64025;BME280;50266;57.446;26.936;2023-12-14T01:12:49;98522.16;;;-1.22;100.0
64025;BME280;50266;57.446;26.936;2023-12-14T01:13:49;98526.11;;;-1.24;100.0
64025;BME280;50266;57.446;26.936;2023-12-14T01:14:49;98523.52;;;-1.22;100.0
64025;BME280;50266;57.446;26.936;2023-12-14T01:15:49;98527.83;;;-1.21;100.0
64025;BME280;50266;57.446;26.936;2023-12-14T01:16:49;98527.66;;;-1.21;100.0
64025;BME280;50266;57.446;26.936;2023-12-14T01:17:49;98529.61;;;-1.19;100.0
64025;BME280;50266;57.446;26.936;2023-12-14T01:18:49;98528.02;;;-1.19;100.0
64025;BME280;50266;57.446;26.936;2023-12-14T01:19:49;98523.3;;;-1.21;100.0
64025;BME280;50266;57.446;26.936;2023-12-14T01:20:50;98522.23;;;-1.21;100.0
64025;BME280;50266;57.446;26.936;2023-12-14T01:21:50;98521.48;;;-1.23;100.0
64025;BME280;50266;57.446;26.936;2023-12-14T01:22:50;98523.62;;;-1.21;100.0
64025;BME280;50266;57.446;26.936;2023-12-14T01:23:50;98527.36;;;-1.19;100.0
64025;BME280;50266;57.446;26.936;2023-12-14T01:24:50;98528.61;;;-1.17;100.0
64025;BME280;50266;57.446;26.936;2023-12-14T01:25:50;98525.09;;;-1.17;100.0
64025;BME280;50266;57.446;26.936;2023-12-14T01:26:50;98522.69;;;-1.17;100.0
64025;BME280;50266;57.446;26.936;2023-12-14T01:27:50;98525.8;;;-1.19;100.0
64025;BME280;50266;57.446;26.936;2023-12-14T01:28:50;98516.55;;;-1.22;100.0
64025;BME280;50266;57.446;26.936;2023-12-14T01:29:50;98520.62;;;-1.19;100.0
64025;BME280;50266;57.446;26.936;2023-12-14T01:30:50;98516.52;;;-1.18;100.0
64025;BME280;50266;57.446;26.936;2023-12-14T01:31:50;98512.95;;;-1.16;100.0
64025;BME280;50266;57.446;26.936;2023-12-14T01:32:50;98512.3;;;-1.16;100.0
64025;BME280;50266;57.446;26.936;2023-12-14T01:33:50;98510.68;;;-1.18;100.0
64025;BME280;50266;57.446;26.936;2023-12-14T01:34:50;98514.05;;;-1.2;100.0
64025;BME280;50266;57.446;26.936;2023-12-14T01:35:50;98515.18;;;-1.22;100.0
64025;BME280;50266;57.446;26.936;2023-12-14T01:36:50;98512.52;;;-1.2;100.0
64025;BME280;50266;57.446;26.936;2023-12-14T01:37:50;98513.19;;;-1.22;100.0
64025;BME280;50266;57.446;26.936;2023-12-14T01:38:50;98515.41;;;-1.26;100.0
64025;BME280;50266;57.446;26.936;2023-12-14T01:39:50;98518.64;;;-1.28;100.0
64025;BME280;50266;57.446;26.936;2023-12-14T01:40:50;98515.22;;;-1.25;100.0
64025;BME280;50266;57.446;26.936;2023-12-14T01:41:50;98518.06;;;-1.24;100.0
64025;BME280;50266;57.446;26.936;2023-12-14T01:42:50;98522.21;;;-1.22;100.0
64025;BME280;50266;57.446;26.936;2023-12-14T01:43:50;98519.02;;;-1.23;100.0
64025;BME280;50266;57.446;26.936;2023-12-14T01:44:50;98519.02;;;-1.23;100.0
64025;BME280;50266;57.446;26.936;2023-12-14T01:45:50;98518.03;;;-1.21;100.0
64025;BME280;50266;57.446;26.936;2023-12-14T01:46:50;98521.14;;;-1.23;100.0
64025;BME280;50266;57.446;26.936;2023-12-14T01:47:50;98523.94;;;-1.22;100.0
64025;BME280;50266;57.446;26.936;2023-12-14T01:48:50;98520.77;;;-1.2;100.0
64025;BME280;50266;57.446;26.936;2023-12-14T01:49:50;98522.21;;;-1.22;100.0
64025;BME280;50266;57.446;26.936;2023-12-14T01:50:50;98524.0;;;-1.24;100.0
64025;BME280;50266;57.446;26.936;2023-12-14T01:51:50;98522.77;;;-1.23;100.0
64025;BME280;50266;57.446;26.936;2023-12-14T01:52:50;98523.78;;;-1.22;100.0
64025;BME280;50266;57.446;26.936;2023-12-14T01:53:50;98521.73;;;-1.22;100.0
64025;BME280;50266;57.446;26.936;2023-12-14T01:54:50;98518.83;;;-1.22;100.0
64025;BME280;50266;57.446;26.936;2023-12-14T01:55:50;98518.02;;;-1.22;100.0
64025;BME280;50266;57.446;26.936;2023-12-14T01:56:51;98523.19;;;-1.22;100.0
64025;BME280;50266;57.446;26.936;2023-12-14T01:57:51;98524.45;;;-1.23;100.0
64025;BME280;50266;57.446;26.936;2023-12-14T01:58:51;98526.72;;;-1.21;100.0
64025;BME280;50266;57.446;26.936;2023-12-14T01:59:51;98525.75;;;-1.21;100.0
64025;BME280;50266;57.446;26.936;2023-12-14T02:00:56;98529.66;;;-1.21;100.0
64025;BME280;50266;57.446;26.936;2023-12-14T02:01:55;98526.38;;;-1.2;100.0
64025;BME280;50266;57.446;26.936;2023-12-14T02:02:55;98530.34;;;-1.2;100.0
64025;BME280;50266;57.446;26.936;2023-12-14T02:03:55;98530.65;;;-1.23;100.0
64025;BME280;50266;57.446;26.936;2023-12-14T02:04:55;98531.97;;;-1.22;100.0
64025;BME280;50266;57.446;26.936;2023-12-14T02:05:55;98535.48;;;-1.21;100.0
64025;BME280;50266;57.446;26.936;2023-12-14T02:06:55;98536.23;;;-1.22;100.0
64025;BME280;50266;57.446;26.936;2023-12-14T02:07:55;98530.2;;;-1.21;100.0
64025;BME280;50266;57.446;26.936;2023-12-14T02:08:55;98527.48;;;-1.21;100.0
64025;BME280;50266;57.446;26.936;2023-12-14T02:09:55;98523.66;;;-1.2;100.0
64025;BME280;50266;57.446;26.936;2023-12-14T02:10:55;98526.11;;;-1.2;100.0
64025;BME280;50266;57.446;26.936;2023-12-14T02:11:55;98531.96;;;-1.18;100.0
64025;BME280;50266;57.446;26.936;2023-12-14T02:12:55;98524.52;;;-1.2;100.0
64025;BME280;50266;57.446;26.936;2023-12-14T02:13:55;98528.2;;;-1.19;100.0
64025;BME280;50266;57.446;26.936;2023-12-14T02:14:56;98530.95;;;-1.22;100.0
64025;BME280;50266;57.446;26.936;2023-12-14T02:15:55;98533.11;;;-1.22;100.0
64025;BME280;50266;57.446;26.936;2023-12-14T02:16:55;98530.36;;;-1.19;100.0
64025;BME280;50266;57.446;26.936;2023-12-14T02:17:55;98531.84;;;-1.2;100.0
64025;BME280;50266;57.446;26.936;2023-12-14T02:18:55;98535.52;;;-1.17;100.0
64025;BME280;50266;57.446;26.936;2023-12-14T02:19:55;98533.19;;;-1.19;100.0
64025;BME280;50266;57.446;26.936;2023-12-14T02:20:55;98532.54;;;-1.19;100.0
64025;BME280;50266;57.446;26.936;2023-12-14T02:21:55;98534.59;;;-1.19;100.0
64025;BME280;50266;57.446;26.936;2023-12-14T02:22:55;98534.12;;;-1.2;100.0
64025;BME280;50266;57.446;26.936;2023-12-14T02:23:55;98538.19;;;-1.18;100.0
64025;BME280;50266;57.446;26.936;2023-12-14T02:24:55;98535.57;;;-1.19;100.0
64025;BME280;50266;57.446;26.936;2023-12-14T02:25:55;98533.72;;;-1.19;100.0
64025;BME280;50266;57.446;26.936;2023-12-14T02:26:56;98545.39;;;-1.18;100.0
64025;BME280;50266;57.446;26.936;2023-12-14T02:27:59;98543.24;;;-1.18;100.0
64025;BME280;50266;57.446;26.936;2023-12-14T02:28:59;98541.39;;;-1.17;100.0
64025;BME280;50266;57.446;26.936;2023-12-14T02:29:59;98541.91;;;-1.17;100.0
64025;BME280;50266;57.446;26.936;2023-12-14T02:30:59;98541.05;;;-1.15;100.0
64025;BME280;50266;57.446;26.936;2023-12-14T02:31:59;98542.5;;;-1.17;100.0
64025;BME280;50266;57.446;26.936;2023-12-14T02:32:59;98543.91;;;-1.16;100.0
64025;BME280;50266;57.446;26.936;2023-12-14T02:33:59;98545.88;;;-1.15;100.0
64025;BME280;50266;57.446;26.936;2023-12-14T02:34:59;98543.17;;;-1.17;100.0
64025;BME280;50266;57.446;26.936;2023-12-14T02:35:59;98546.69;;;-1.15;100.0
64025;BME280;50266;57.446;26.936;2023-12-14T02:36:59;98544.97;;;-1.14;100.0
64025;BME280;50266;57.446;26.936;2023-12-14T02:37:59;98542.42;;;-1.14;100.0
64025;BME280;50266;57.446;26.936;2023-12-14T02:38:59;98542.48;;;-1.16;100.0
64025;BME280;50266;57.446;26.936;2023-12-14T02:39:59;98547.33;;;-1.16;100.0
64025;BME280;50266;57.446;26.936;2023-12-14T02:40:59;98545.12;;;-1.15;100.0
64025;BME280;50266;57.446;26.936;2023-12-14T02:41:59;98543.12;;;-1.16;100.0
64025;BME280;50266;57.446;26.936;2023-12-14T02:42:59;98548.73;;;-1.16;100.0
64025;BME280;50266;57.446;26.936;2023-12-14T02:43:59;98544.81;;;-1.16;100.0
64025;BME280;50266;57.446;26.936;2023-12-14T02:44:59;98545.14;;;-1.16;100.0
64025;BME280;50266;57.446;26.936;2023-12-14T02:45:59;98547.97;;;-1.14;100.0
64025;BME280;50266;57.446;26.936;2023-12-14T02:46:59;98544.64;;;-1.14;100.0
64025;BME280;50266;57.446;26.936;2023-12-14T02:47:59;98545.3;;;-1.14;100.0
64025;BME280;50266;57.446;26.936;2023-12-14T02:48:59;98541.71;;;-1.14;100.0
64025;BME280;50266;57.446;26.936;2023-12-14T02:49:59;98548.61;;;-1.11;100.0
64025;BME280;50266;57.446;26.936;2023-12-14T02:50:59;98544.5;;;-1.12;100.0
64025;BME280;50266;57.446;26.936;2023-12-14T02:51:59;98538.71;;;-1.11;100.0
64025;BME280;50266;57.446;26.936;2023-12-14T02:52:59;98538.94;;;-1.08;100.0
64025;BME280;50266;57.446;26.936;2023-12-14T02:53:59;98538.57;;;-1.08;100.0
64025;BME280;50266;57.446;26.936;2023-12-14T02:54:59;98536.97;;;-1.12;100.0
64025;BME280;50266;57.446;26.936;2023-12-14T02:56:02;98539.44;;;-1.13;100.0
64025;BME280;50266;57.446;26.936;2023-12-14T02:56:59;98546.63;;;-1.1;100.0
64025;BME280;50266;57.446;26.936;2023-12-14T02:57:59;98544.48;;;-1.1;100.0
64025;BME280;50266;57.446;26.936;2023-12-14T02:58:59;98545.83;;;-1.09;100.0
64025;BME280;50266;57.446;26.936;2023-12-14T02:59:59;98548.17;;;-1.09;100.0
64025;BME280;50266;57.446;26.936;2023-12-14T03:00:59;98549.06;;;-1.08;100.0
64025;BME280;50266;57.446;26.936;2023-12-14T03:01:59;98549.89;;;-1.1;100.0
64025;BME280;50266;57.446;26.936;2023-12-14T03:02:59;98548.73;;;-1.08;100.0
64025;BME280;50266;57.446;26.936;2023-12-14T03:03:59;98550.1;;;-1.09;100.0
64025;BME280;50266;57.446;26.936;2023-12-14T03:04:59;98549.27;;;-1.08;100.0
64025;BME280;50266;57.446;26.936;2023-12-14T03:05:59;98555.73;;;-1.06;100.0
64025;BME280;50266;57.446;26.936;2023-12-14T03:06:59;98555.56;;;-1.06;100.0
64025;BME280;50266;57.446;26.936;2023-12-14T03:07:59;98559.17;;;-1.04;100.0
64025;BME280;50266;57.446;26.936;2023-12-14T03:08:59;98557.86;;;-1.05;100.0
64025;BME280;50266;57.446;26.936;2023-12-14T03:09:59;98563.53;;;-1.06;100.0
64025;BME280;50266;57.446;26.936;2023-12-14T03:10:59;98559.97;;;-1.06;100.0
64025;BME280;50266;57.446;26.936;2023-12-14T03:12:00;98559.19;;;-1.06;100.0
64025;BME280;50266;57.446;26.936;2023-12-14T03:12:59;98551.53;;;-1.09;100.0
64025;BME280;50266;57.446;26.936;2023-12-14T03:13:59;98543.89;;;-1.08;100.0
64025;BME280;50266;57.446;26.936;2023-12-14T03:14:59;98536.99;;;-1.1;100.0
64025;BME280;50266;57.446;26.936;2023-12-14T03:15:59;98526.28;;;-1.08;100.0
64025;BME280;50266;57.446;26.936;2023-12-14T03:16:59;98515.77;;;-1.07;100.0
64025;BME280;50266;57.446;26.936;2023-12-14T03:17:59;98514.29;;;-1.08;100.0
64025;BME280;50266;57.446;26.936;2023-12-14T03:18:59;98519.98;;;-1.06;100.0
64025;BME280;50266;57.446;26.936;2023-12-14T03:19:59;98518.12;;;-1.09;100.0
64025;BME280;50266;57.446;26.936;2023-12-14T03:20:59;98520.92;;;-1.1;100.0
64025;BME280;50266;57.446;26.936;2023-12-14T03:21:59;98529.2;;;-1.1;100.0
64025;BME280;50266;57.446;26.936;2023-12-14T03:23:00;98541.64;;;-1.11;100.0
64025;BME280;50266;57.446;26.936;2023-12-14T03:24:00;98543.73;;;-1.11;100.0
64025;BME280;50266;57.446;26.936;2023-12-14T03:25:00;98546.7;;;-1.11;100.0
64025;BME280;50266;57.446;26.936;2023-12-14T03:26:00;98552.75;;;-1.08;100.0
64025;BME280;50266;57.446;26.936;2023-12-14T03:27:00;98555.53;;;-1.07;100.0
64025;BME280;50266;57.446;26.936;2023-12-14T03:28:00;98554.81;;;-1.07;100.0
64025;BME280;50266;57.446;26.936;2023-12-14T03:29:00;98558.94;;;-1.08;100.0
64025;BME280;50266;57.446;26.936;2023-12-14T03:30:00;98560.28;;;-1.11;100.0
64025;BME280;50266;57.446;26.936;2023-12-14T03:31:00;98555.73;;;-1.1;100.0
64025;BME280;50266;57.446;26.936;2023-12-14T03:32:00;98561.02;;;-1.09;100.0
64025;BME280;50266;57.446;26.936;2023-12-14T03:33:00;98557.44;;;-1.09;100.0
64025;BME280;50266;57.446;26.936;2023-12-14T03:34:00;98555.48;;;-1.09;100.0
64025;BME280;50266;57.446;26.936;2023-12-14T03:35:00;98557.95;;;-1.06;100.0
64025;BME280;50266;57.446;26.936;2023-12-14T03:36:00;98561.08;;;-1.06;100.0
64025;BME280;50266;57.446;26.936;2023-12-14T03:37:00;98563.72;;;-1.06;100.0
64025;BME280;50266;57.446;26.936;2023-12-14T03:38:00;98563.42;;;-1.06;100.0
64025;BME280;50266;57.446;26.936;2023-12-14T03:39:00;98568.78;;;-1.05;100.0
64025;BME280;50266;57.446;26.936;2023-12-14T03:40:00;98571.45;;;-1.09;100.0
64025;BME280;50266;57.446;26.936;2023-12-14T03:41:00;98568.73;;;-1.07;100.0
64025;BME280;50266;57.446;26.936;2023-12-14T03:42:00;98571.77;;;-1.07;100.0
64025;BME280;50266;57.446;26.936;2023-12-14T03:43:00;98573.34;;;-1.08;100.0
64025;BME280;50266;57.446;26.936;2023-12-14T03:44:00;98577.31;;;-1.09;100.0
64025;BME280;50266;57.446;26.936;2023-12-14T03:45:00;98571.79;;;-1.07;100.0
64025;BME280;50266;57.446;26.936;2023-12-14T03:46:00;98574.05;;;-1.07;100.0
64025;BME280;50266;57.446;26.936;2023-12-14T03:47:00;98574.92;;;-1.07;100.0
64025;BME280;50266;57.446;26.936;2023-12-14T03:48:00;98576.42;;;-1.06;100.0
64025;BME280;50266;57.446;26.936;2023-12-14T03:49:01;98577.11;;;-1.06;100.0
64025;BME280;50266;57.446;26.936;2023-12-14T03:50:00;98582.66;;;-1.06;100.0
64025;BME280;50266;57.446;26.936;2023-12-14T03:51:04;98579.86;;;-1.12;100.0
64025;BME280;50266;57.446;26.936;2023-12-14T03:52:00;98584.3;;;-1.11;100.0
64025;BME280;50266;57.446;26.936;2023-12-14T03:53:00;98581.28;;;-1.1;100.0
64025;BME280;50266;57.446;26.936;2023-12-14T03:54:00;98580.73;;;-1.09;100.0
64025;BME280;50266;57.446;26.936;2023-12-14T03:55:00;98585.95;;;-1.09;100.0
64025;BME280;50266;57.446;26.936;2023-12-14T03:56:00;98581.23;;;-1.09;100.0
64025;BME280;50266;57.446;26.936;2023-12-14T03:57:00;98584.9;;;-1.06;100.0
64025;BME280;50266;57.446;26.936;2023-12-14T03:58:00;98585.53;;;-1.06;100.0
64025;BME280;50266;57.446;26.936;2023-12-14T03:59:00;98583.51;;;-1.09;100.0
64025;BME280;50266;57.446;26.936;2023-12-14T04:00:00;98587.48;;;-1.09;100.0
64025;BME280;50266;57.446;26.936;2023-12-14T04:01:00;98586.52;;;-1.08;100.0
64025;BME280;50266;57.446;26.936;2023-12-14T04:02:00;98584.78;;;-1.09;100.0
64025;BME280;50266;57.446;26.936;2023-12-14T04:03:00;98584.65;;;-1.09;100.0
64025;BME280;50266;57.446;26.936;2023-12-14T04:04:00;98590.12;;;-1.1;100.0
64025;BME280;50266;57.446;26.936;2023-12-14T04:05:00;98597.66;;;-1.11;100.0
64025;BME280;50266;57.446;26.936;2023-12-14T04:06:01;98593.45;;;-1.12;100.0
64025;BME280;50266;57.446;26.936;2023-12-14T04:07:01;98596.12;;;-1.12;100.0
64025;BME280;50266;57.446;26.936;2023-12-14T04:08:01;98594.48;;;-1.13;100.0
64025;BME280;50266;57.446;26.936;2023-12-14T04:09:01;98590.57;;;-1.13;100.0
64025;BME280;50266;57.446;26.936;2023-12-14T04:10:01;98591.88;;;-1.15;100.0
64025;BME280;50266;57.446;26.936;2023-12-14T04:11:01;98587.38;;;-1.14;100.0
64025;BME280;50266;57.446;26.936;2023-12-14T04:12:01;98582.8;;;-1.15;100.0
64025;BME280;50266;57.446;26.936;2023-12-14T04:13:01;98578.32;;;-1.13;100.0
64025;BME280;50266;57.446;26.936;2023-12-14T04:14:01;98574.56;;;-1.14;100.0
64025;BME280;50266;57.446;26.936;2023-12-14T04:15:01;98565.03;;;-1.15;100.0
64025;BME280;50266;57.446;26.936;2023-12-14T04:16:01;98552.64;;;-1.13;100.0
64025;BME280;50266;57.446;26.936;2023-12-14T04:17:01;98543.06;;;-1.16;100.0
64025;BME280;50266;57.446;26.936;2023-12-14T04:18:01;98544.87;;;-1.14;100.0
64025;BME280;50266;57.446;26.936;2023-12-14T04:19:01;98547.1;;;-1.13;100.0
64025;BME280;50266;57.446;26.936;2023-12-14T04:20:01;98547.57;;;-1.11;100.0
64025;BME280;50266;57.446;26.936;2023-12-14T04:21:01;98554.27;;;-1.13;100.0
64025;BME280;50266;57.446;26.936;2023-12-14T04:22:01;98557.84;;;-1.11;100.0
64025;BME280;50266;57.446;26.936;2023-12-14T04:23:01;98557.27;;;-1.1;100.0
64025;BME280;50266;57.446;26.936;2023-12-14T04:24:01;98564.64;;;-1.08;100.0
64025;BME280;50266;57.446;26.936;2023-12-14T04:25:01;98562.33;;;-1.09;100.0
64025;BME280;50266;57.446;26.936;2023-12-14T04:26:01;98563.0;;;-1.09;100.0
64025;BME280;50266;57.446;26.936;2023-12-14T04:27:01;98573.44;;;-1.09;100.0
64025;BME280;50266;57.446;26.936;2023-12-14T04:28:01;98573.28;;;-1.08;100.0
64025;BME280;50266;57.446;26.936;2023-12-14T04:29:01;98572.31;;;-1.1;100.0
64025;BME280;50266;57.446;26.936;2023-12-14T04:30:02;98577.92;;;-1.1;100.0
64025;BME280;50266;57.446;26.936;2023-12-14T04:31:01;98578.26;;;-1.09;100.0
64025;BME280;50266;57.446;26.936;2023-12-14T04:32:01;98581.17;;;-1.08;100.0
64025;BME280;50266;57.446;26.936;2023-12-14T04:33:01;98581.88;;;-1.09;100.0
64025;BME280;50266;57.446;26.936;2023-12-14T04:34:01;98584.23;;;-1.11;100.0
64025;BME280;50266;57.446;26.936;2023-12-14T04:35:01;98583.0;;;-1.11;100.0
64025;BME280;50266;57.446;26.936;2023-12-14T04:36:01;98591.77;;;-1.14;100.0
64025;BME280;50266;57.446;26.936;2023-12-14T04:37:01;98590.2;;;-1.17;100.0
64025;BME280;50266;57.446;26.936;2023-12-14T04:38:02;98587.52;;;-1.15;100.0
64025;BME280;50266;57.446;26.936;2023-12-14T04:39:01;98589.99;;;-1.12;100.0
64025;BME280;50266;57.446;26.936;2023-12-14T04:40:02;98591.2;;;-1.13;100.0
64025;BME280;50266;57.446;26.936;2023-12-14T04:41:02;98590.49;;;-1.11;100.0
64025;BME280;50266;57.446;26.936;2023-12-14T04:42:02;98591.97;;;-1.13;100.0
64025;BME280;50266;57.446;26.936;2023-12-14T04:43:01;98600.67;;;-1.13;100.0
64025;BME280;50266;57.446;26.936;2023-12-14T04:44:01;98596.52;;;-1.12;100.0
64025;BME280;50266;57.446;26.936;2023-12-14T04:45:02;98596.94;;;-1.12;100.0
64025;BME280;50266;57.446;26.936;2023-12-14T04:46:02;98594.5;;;-1.11;100.0
64025;BME280;50266;57.446;26.936;2023-12-14T04:47:02;98595.26;;;-1.14;100.0
64025;BME280;50266;57.446;26.936;2023-12-14T04:48:02;98596.27;;;-1.13;100.0
64025;BME280;50266;57.446;26.936;2023-12-14T04:49:02;98602.61;;;-1.15;100.0
64025;BME280;50266;57.446;26.936;2023-12-14T04:50:02;98599.06;;;-1.14;100.0
64025;BME280;50266;57.446;26.936;2023-12-14T04:51:02;98603.11;;;-1.13;100.0
64025;BME280;50266;57.446;26.936;2023-12-14T04:52:02;98605.72;;;-1.13;100.0
64025;BME280;50266;57.446;26.936;2023-12-14T04:53:02;98605.02;;;-1.12;100.0
64025;BME280;50266;57.446;26.936;2023-12-14T04:54:02;98607.66;;;-1.13;100.0
64025;BME280;50266;57.446;26.936;2023-12-14T04:55:02;98606.71;;;-1.15;100.0
64025;BME280;50266;57.446;26.936;2023-12-14T04:56:02;98609.36;;;-1.15;100.0
64025;BME280;50266;57.446;26.936;2023-12-14T04:57:02;98608.28;;;-1.15;100.0
64025;BME280;50266;57.446;26.936;2023-12-14T04:58:02;98606.59;;;-1.15;100.0
64025;BME280;50266;57.446;26.936;2023-12-14T04:59:02;98602.42;;;-1.14;100.0
64025;BME280;50266;57.446;26.936;2023-12-14T05:00:03;98605.12;;;-1.15;100.0
64025;BME280;50266;57.446;26.936;2023-12-14T05:01:02;98610.08;;;-1.15;100.0
64025;BME280;50266;57.446;26.936;2023-12-14T05:02:02;98607.48;;;-1.16;100.0
64025;BME280;50266;57.446;26.936;2023-12-14T05:03:02;98605.08;;;-1.19;100.0
64025;BME280;50266;57.446;26.936;2023-12-14T05:04:02;98601.96;;;-1.18;100.0
64025;BME280;50266;57.446;26.936;2023-12-14T05:05:02;98608.41;;;-1.19;100.0
64025;BME280;50266;57.446;26.936;2023-12-14T05:06:02;98609.52;;;-1.18;100.0
64025;BME280;50266;57.446;26.936;2023-12-14T05:07:03;98608.43;;;-1.16;100.0
64025;BME280;50266;57.446;26.936;2023-12-14T05:08:02;98607.5;;;-1.18;100.0
64025;BME280;50266;57.446;26.936;2023-12-14T05:09:02;98607.29;;;-1.16;100.0
64025;BME280;50266;57.446;26.936;2023-12-14T05:10:03;98604.86;;;-1.15;100.0
64025;BME280;50266;57.446;26.936;2023-12-14T05:11:03;98598.87;;;-1.15;100.0
64025;BME280;50266;57.446;26.936;2023-12-14T05:12:03;98600.14;;;-1.17;100.0
64025;BME280;50266;57.446;26.936;2023-12-14T05:13:02;98597.59;;;-1.25;100.0
64025;BME280;50266;57.446;26.936;2023-12-14T05:14:02;98597.34;;;-1.27;100.0
64025;BME280;50266;57.446;26.936;2023-12-14T05:15:04;98594.31;;;-1.23;100.0